sensor_id;sensor_type;location;lat;lon;timestamp;P1;durP1;ratioP1;P2;durP2;ratioP2
32633;SDS011;19043;51.012;5.648;2023-06-14T00:01:00;10.20;;;4.90;;
32633;SDS011;19043;51.012;5.648;2023-06-14T00:03:28;8.77;;;4.90;;
32633;SDS011;19043;51.012;5.648;2023-06-14T00:05:53;9.18;;;5.65;;
32633;SDS011;19043;51.012;5.648;2023-06-14T00:08:21;9.00;;;5.65;;
32633;SDS011;19043;51.012;5.648;2023-06-14T00:10:47;6.55;;;4.68;;
32633;SDS011;19043;51.012;5.648;2023-06-14T00:13:13;8.02;;;4.53;;
32633;SDS011;19043;51.012;5.648;2023-06-14T00:15:39;9.70;;;5.63;;
32633;SDS011;19043;51.012;5.648;2023-06-14T00:18:04;12.90;;;5.60;;
32633;SDS011;19043;51.012;5.648;2023-06-14T00:20:31;9.00;;;4.80;;
32633;SDS011;19043;51.012;5.648;2023-06-14T00:22:57;6.88;;;5.03;;
32633;SDS011;19043;51.012;5.648;2023-06-14T00:25:23;8.02;;;5.30;;
32633;SDS011;19043;51.012;5.648;2023-06-14T00:27:50;12.77;;;5.07;;
32633;SDS011;19043;51.012;5.648;2023-06-14T00:30:15;7.78;;;5.13;;
32633;SDS011;19043;51.012;5.648;2023-06-14T00:32:40;7.30;;;5.18;;
32633;SDS011;19043;51.012;5.648;2023-06-14T00:35:07;15.10;;;5.63;;
32633;SDS011;19043;51.012;5.648;2023-06-14T00:37:33;12.32;;;5.10;;
32633;SDS011;19043;51.012;5.648;2023-06-14T00:39:58;7.23;;;4.63;;
32633;SDS011;19043;51.012;5.648;2023-06-14T00:42:27;8.23;;;5.83;;
32633;SDS011;19043;51.012;5.648;2023-06-14T00:44:52;7.32;;;5.28;;
32633;SDS011;19043;51.012;5.648;2023-06-14T00:47:17;7.80;;;5.63;;
32633;SDS011;19043;51.012;5.648;2023-06-14T00:49:45;7.13;;;4.53;;
32633;SDS011;19043;51.012;5.648;2023-06-14T00:52:10;10.85;;;5.10;;
32633;SDS011;19043;51.012;5.648;2023-06-14T00:54:37;8.85;;;4.70;;
32633;SDS011;19043;51.012;5.648;2023-06-14T00:57:03;7.03;;;5.00;;
32633;SDS011;19043;51.012;5.648;2023-06-14T00:59:28;8.18;;;5.40;;
32633;SDS011;19043;51.012;5.648;2023-06-14T01:01:53;7.18;;;4.90;;
32633;SDS011;19043;51.012;5.648;2023-06-14T01:04:18;8.45;;;5.07;;
32633;SDS011;19043;51.012;5.648;2023-06-14T01:06:52;8.43;;;5.40;;
32633;SDS011;19043;51.012;5.648;2023-06-14T01:09:37;9.10;;;5.57;;
32633;SDS011;19043;51.012;5.648;2023-06-14T01:12:18;12.73;;;5.10;;
32633;SDS011;19043;51.012;5.648;2023-06-14T01:14:46;7.32;;;5.30;;
32633;SDS011;19043;51.012;5.648;2023-06-14T01:17:13;6.93;;;5.30;;
32633;SDS011;19043;51.012;5.648;2023-06-14T01:19:44;8.85;;;4.88;;
32633;SDS011;19043;51.012;5.648;2023-06-14T01:22:10;9.27;;;5.53;;
32633;SDS011;19043;51.012;5.648;2023-06-14T01:24:36;6.88;;;5.03;;
32633;SDS011;19043;51.012;5.648;2023-06-14T01:27:01;9.25;;;5.32;;
32633;SDS011;19043;51.012;5.648;2023-06-14T01:29:27;10.20;;;6.07;;
32633;SDS011;19043;51.012;5.648;2023-06-14T01:31:57;13.07;;;5.95;;
32633;SDS011;19043;51.012;5.648;2023-06-14T01:34:22;19.50;;;6.45;;
32633;SDS011;19043;51.012;5.648;2023-06-14T01:36:47;9.57;;;5.88;;
32633;SDS011;19043;51.012;5.648;2023-06-14T01:39:14;11.38;;;6.00;;
32633;SDS011;19043;51.012;5.648;2023-06-14T01:41:40;10.05;;;5.50;;
32633;SDS011;19043;51.012;5.648;2023-06-14T01:44:06;7.28;;;5.72;;
32633;SDS011;19043;51.012;5.648;2023-06-14T01:46:31;7.82;;;5.97;;
32633;SDS011;19043;51.012;5.648;2023-06-14T01:48:56;7.72;;;6.00;;
32633;SDS011;19043;51.012;5.648;2023-06-14T01:51:22;7.22;;;5.60;;
32633;SDS011;19043;51.012;5.648;2023-06-14T01:53:47;9.00;;;6.53;;
32633;SDS011;19043;51.012;5.648;2023-06-14T01:56:13;17.27;;;5.45;;
32633;SDS011;19043;51.012;5.648;2023-06-14T01:58:38;11.10;;;6.37;;
32633;SDS011;19043;51.012;5.648;2023-06-14T02:01:04;8.88;;;6.10;;
32633;SDS011;19043;51.012;5.648;2023-06-14T02:03:30;8.48;;;6.15;;
32633;SDS011;19043;51.012;5.648;2023-06-14T02:05:55;9.23;;;7.35;;
32633;SDS011;19043;51.012;5.648;2023-06-14T02:08:21;11.52;;;6.32;;
32633;SDS011;19043;51.012;5.648;2023-06-14T02:10:46;8.95;;;5.85;;
32633;SDS011;19043;51.012;5.648;2023-06-14T02:13:11;8.33;;;6.33;;
32633;SDS011;19043;51.012;5.648;2023-06-14T02:15:37;12.30;;;5.95;;
32633;SDS011;19043;51.012;5.648;2023-06-14T02:18:02;13.80;;;6.63;;
32633;SDS011;19043;51.012;5.648;2023-06-14T02:20:28;12.20;;;6.38;;
32633;SDS011;19043;51.012;5.648;2023-06-14T02:22:54;10.05;;;6.05;;
32633;SDS011;19043;51.012;5.648;2023-06-14T02:25:19;10.13;;;7.07;;
32633;SDS011;19043;51.012;5.648;2023-06-14T02:27:44;11.10;;;6.22;;
32633;SDS011;19043;51.012;5.648;2023-06-14T02:30:10;10.07;;;6.57;;
32633;SDS011;19043;51.012;5.648;2023-06-14T02:32:35;9.50;;;6.95;;
32633;SDS011;19043;51.012;5.648;2023-06-14T02:35:01;9.87;;;6.37;;
32633;SDS011;19043;51.012;5.648;2023-06-14T02:37:27;8.05;;;6.57;;
32633;SDS011;19043;51.012;5.648;2023-06-14T02:39:52;10.23;;;6.13;;
32633;SDS011;19043;51.012;5.648;2023-06-14T02:42:17;9.83;;;6.37;;
32633;SDS011;19043;51.012;5.648;2023-06-14T02:44:42;13.93;;;7.77;;
32633;SDS011;19043;51.012;5.648;2023-06-14T02:47:08;8.85;;;6.88;;
32633;SDS011;19043;51.012;5.648;2023-06-14T02:49:36;19.20;;;6.60;;
32633;SDS011;19043;51.012;5.648;2023-06-14T02:52:01;13.02;;;6.00;;
32633;SDS011;19043;51.012;5.648;2023-06-14T02:54:27;10.70;;;6.43;;
32633;SDS011;19043;51.012;5.648;2023-06-14T02:56:52;12.27;;;7.03;;
32633;SDS011;19043;51.012;5.648;2023-06-14T02:59:18;13.03;;;6.53;;
32633;SDS011;19043;51.012;5.648;2023-06-14T03:01:44;9.10;;;6.43;;
32633;SDS011;19043;51.012;5.648;2023-06-14T03:04:09;19.10;;;7.28;;
32633;SDS011;19043;51.012;5.648;2023-06-14T03:06:34;14.13;;;7.60;;
32633;SDS011;19043;51.012;5.648;2023-06-14T03:09:00;11.30;;;7.22;;
32633;SDS011;19043;51.012;5.648;2023-06-14T03:11:28;13.32;;;6.25;;
32633;SDS011;19043;51.012;5.648;2023-06-14T03:13:54;9.18;;;6.05;;
32633;SDS011;19043;51.012;5.648;2023-06-14T03:16:20;8.10;;;6.18;;
32633;SDS011;19043;51.012;5.648;2023-06-14T03:18:47;12.30;;;7.32;;
32633;SDS011;19043;51.012;5.648;2023-06-14T03:21:12;10.50;;;6.80;;
32633;SDS011;19043;51.012;5.648;2023-06-14T03:23:38;13.07;;;7.60;;
32633;SDS011;19043;51.012;5.648;2023-06-14T03:26:03;8.05;;;5.97;;
32633;SDS011;19043;51.012;5.648;2023-06-14T03:28:28;16.92;;;6.07;;
32633;SDS011;19043;51.012;5.648;2023-06-14T03:30:53;10.67;;;7.07;;
32633;SDS011;19043;51.012;5.648;2023-06-14T03:33:19;9.88;;;6.68;;
32633;SDS011;19043;51.012;5.648;2023-06-14T03:35:45;12.00;;;6.78;;
32633;SDS011;19043;51.012;5.648;2023-06-14T03:38:10;12.82;;;6.45;;
32633;SDS011;19043;51.012;5.648;2023-06-14T03:40:36;7.50;;;6.23;;
32633;SDS011;19043;51.012;5.648;2023-06-14T03:43:01;12.10;;;6.75;;
32633;SDS011;19043;51.012;5.648;2023-06-14T03:45:26;12.00;;;6.20;;
32633;SDS011;19043;51.012;5.648;2023-06-14T03:47:52;17.20;;;7.77;;
32633;SDS011;19043;51.012;5.648;2023-06-14T03:50:17;8.23;;;6.93;;
32633;SDS011;19043;51.012;5.648;2023-06-14T03:52:43;10.30;;;7.45;;
32633;SDS011;19043;51.012;5.648;2023-06-14T03:55:08;8.07;;;6.10;;
32633;SDS011;19043;51.012;5.648;2023-06-14T03:57:34;15.77;;;6.85;;
32633;SDS011;19043;51.012;5.648;2023-06-14T03:59:59;7.03;;;6.18;;
32633;SDS011;19043;51.012;5.648;2023-06-14T04:02:25;10.88;;;6.45;;
32633;SDS011;19043;51.012;5.648;2023-06-14T04:04:51;14.18;;;6.50;;
32633;SDS011;19043;51.012;5.648;2023-06-14T04:07:19;9.30;;;6.72;;
32633;SDS011;19043;51.012;5.648;2023-06-14T04:09:44;14.65;;;6.97;;
32633;SDS011;19043;51.012;5.648;2023-06-14T04:12:10;12.57;;;7.07;;
32633;SDS011;19043;51.012;5.648;2023-06-14T04:14:36;8.05;;;5.88;;
32633;SDS011;19043;51.012;5.648;2023-06-14T04:17:02;10.48;;;6.15;;
32633;SDS011;19043;51.012;5.648;2023-06-14T04:19:27;11.82;;;6.85;;
32633;SDS011;19043;51.012;5.648;2023-06-14T04:21:52;11.57;;;7.07;;
32633;SDS011;19043;51.012;5.648;2023-06-14T04:24:18;10.05;;;6.60;;
32633;SDS011;19043;51.012;5.648;2023-06-14T04:26:43;8.93;;;6.17;;
32633;SDS011;19043;51.012;5.648;2023-06-14T04:29:13;10.48;;;6.03;;
32633;SDS011;19043;51.012;5.648;2023-06-14T04:31:42;11.23;;;6.22;;
32633;SDS011;19043;51.012;5.648;2023-06-14T04:34:09;10.35;;;6.43;;
32633;SDS011;19043;51.012;5.648;2023-06-14T04:36:41;11.05;;;6.47;;
32633;SDS011;19043;51.012;5.648;2023-06-14T04:39:08;7.78;;;6.40;;
32633;SDS011;19043;51.012;5.648;2023-06-14T04:41:33;8.77;;;5.88;;
32633;SDS011;19043;51.012;5.648;2023-06-14T04:44:00;8.90;;;6.15;;
32633;SDS011;19043;51.012;5.648;2023-06-14T04:46:27;8.80;;;5.55;;
32633;SDS011;19043;51.012;5.648;2023-06-14T04:48:53;9.05;;;6.20;;
32633;SDS011;19043;51.012;5.648;2023-06-14T04:51:19;19.67;;;7.85;;
32633;SDS011;19043;51.012;5.648;2023-06-14T04:53:47;8.77;;;5.90;;
32633;SDS011;19043;51.012;5.648;2023-06-14T04:56:14;8.38;;;6.43;;
32633;SDS011;19043;51.012;5.648;2023-06-14T04:58:40;11.00;;;6.10;;
32633;SDS011;19043;51.012;5.648;2023-06-14T05:01:05;9.30;;;6.07;;
32633;SDS011;19043;51.012;5.648;2023-06-14T05:03:30;13.65;;;6.32;;
32633;SDS011;19043;51.012;5.648;2023-06-14T05:05:56;8.05;;;6.38;;
32633;SDS011;19043;51.012;5.648;2023-06-14T05:08:21;13.85;;;7.18;;
32633;SDS011;19043;51.012;5.648;2023-06-14T05:10:50;9.02;;;6.22;;
32633;SDS011;19043;51.012;5.648;2023-06-14T05:13:16;12.38;;;6.65;;
32633;SDS011;19043;51.012;5.648;2023-06-14T05:15:41;9.97;;;5.80;;
32633;SDS011;19043;51.012;5.648;2023-06-14T05:18:06;15.85;;;6.88;;
32633;SDS011;19043;51.012;5.648;2023-06-14T05:20:34;9.45;;;6.00;;
32633;SDS011;19043;51.012;5.648;2023-06-14T05:22:59;11.50;;;6.38;;
32633;SDS011;19043;51.012;5.648;2023-06-14T05:25:25;11.90;;;6.05;;
32633;SDS011;19043;51.012;5.648;2023-06-14T05:27:53;20.90;;;7.28;;
32633;SDS011;19043;51.012;5.648;2023-06-14T05:30:18;8.50;;;6.45;;
32633;SDS011;19043;51.012;5.648;2023-06-14T05:32:43;9.48;;;6.80;;
32633;SDS011;19043;51.012;5.648;2023-06-14T05:35:08;10.38;;;7.35;;
32633;SDS011;19043;51.012;5.648;2023-06-14T05:37:34;11.48;;;6.38;;
32633;SDS011;19043;51.012;5.648;2023-06-14T05:39:59;12.30;;;5.82;;
32633;SDS011;19043;51.012;5.648;2023-06-14T05:42:24;15.65;;;7.22;;
32633;SDS011;19043;51.012;5.648;2023-06-14T05:44:50;11.00;;;6.87;;
32633;SDS011;19043;51.012;5.648;2023-06-14T05:47:15;10.63;;;6.93;;
32633;SDS011;19043;51.012;5.648;2023-06-14T05:49:41;15.27;;;7.95;;
32633;SDS011;19043;51.012;5.648;2023-06-14T05:52:06;11.43;;;7.05;;
32633;SDS011;19043;51.012;5.648;2023-06-14T05:54:32;9.65;;;6.30;;
32633;SDS011;19043;51.012;5.648;2023-06-14T05:56:57;10.45;;;6.82;;
32633;SDS011;19043;51.012;5.648;2023-06-14T05:59:26;9.10;;;6.72;;
32633;SDS011;19043;51.012;5.648;2023-06-14T06:01:52;10.18;;;6.55;;
32633;SDS011;19043;51.012;5.648;2023-06-14T06:04:17;14.37;;;7.07;;
32633;SDS011;19043;51.012;5.648;2023-06-14T06:06:42;14.73;;;6.97;;
32633;SDS011;19043;51.012;5.648;2023-06-14T06:09:07;12.43;;;6.93;;
32633;SDS011;19043;51.012;5.648;2023-06-14T06:11:33;9.88;;;6.90;;
32633;SDS011;19043;51.012;5.648;2023-06-14T06:13:58;10.67;;;7.03;;
32633;SDS011;19043;51.012;5.648;2023-06-14T06:16:23;11.30;;;6.57;;
32633;SDS011;19043;51.012;5.648;2023-06-14T06:18:49;14.45;;;7.47;;
32633;SDS011;19043;51.012;5.648;2023-06-14T06:21:14;15.00;;;6.60;;
32633;SDS011;19043;51.012;5.648;2023-06-14T06:23:40;14.00;;;6.78;;
32633;SDS011;19043;51.012;5.648;2023-06-14T06:26:05;12.27;;;6.23;;
32633;SDS011;19043;51.012;5.648;2023-06-14T06:28:31;10.63;;;7.50;;
32633;SDS011;19043;51.012;5.648;2023-06-14T06:30:56;13.57;;;6.60;;
32633;SDS011;19043;51.012;5.648;2023-06-14T06:33:21;10.83;;;6.30;;
32633;SDS011;19043;51.012;5.648;2023-06-14T06:35:46;8.17;;;5.97;;
32633;SDS011;19043;51.012;5.648;2023-06-14T06:38:15;10.10;;;6.00;;
32633;SDS011;19043;51.012;5.648;2023-06-14T06:40:43;11.10;;;6.70;;
32633;SDS011;19043;51.012;5.648;2023-06-14T06:43:10;16.13;;;6.68;;
32633;SDS011;19043;51.012;5.648;2023-06-14T06:45:38;8.75;;;6.15;;
32633;SDS011;19043;51.012;5.648;2023-06-14T06:48:04;9.00;;;6.30;;
32633;SDS011;19043;51.012;5.648;2023-06-14T06:50:29;16.23;;;6.10;;
32633;SDS011;19043;51.012;5.648;2023-06-14T06:52:55;9.85;;;6.15;;
32633;SDS011;19043;51.012;5.648;2023-06-14T06:55:20;13.68;;;5.72;;
32633;SDS011;19043;51.012;5.648;2023-06-14T06:57:46;10.07;;;5.65;;
32633;SDS011;19043;51.012;5.648;2023-06-14T07:00:11;10.68;;;5.32;;
32633;SDS011;19043;51.012;5.648;2023-06-14T07:02:37;15.27;;;6.35;;
32633;SDS011;19043;51.012;5.648;2023-06-14T07:05:02;8.10;;;5.57;;
32633;SDS011;19043;51.012;5.648;2023-06-14T07:07:28;8.80;;;5.75;;
32633;SDS011;19043;51.012;5.648;2023-06-14T07:09:53;10.82;;;5.70;;
32633;SDS011;19043;51.012;5.648;2023-06-14T07:12:19;6.68;;;4.65;;
32633;SDS011;19043;51.012;5.648;2023-06-14T07:14:44;8.87;;;5.67;;
32633;SDS011;19043;51.012;5.648;2023-06-14T07:17:09;7.47;;;4.72;;
32633;SDS011;19043;51.012;5.648;2023-06-14T07:19:35;12.65;;;5.38;;
32633;SDS011;19043;51.012;5.648;2023-06-14T07:22:00;10.07;;;5.10;;
32633;SDS011;19043;51.012;5.648;2023-06-14T07:24:25;8.95;;;5.00;;
32633;SDS011;19043;51.012;5.648;2023-06-14T07:26:51;10.07;;;4.93;;
32633;SDS011;19043;51.012;5.648;2023-06-14T07:29:16;12.07;;;5.30;;
32633;SDS011;19043;51.012;5.648;2023-06-14T07:31:41;6.37;;;4.60;;
32633;SDS011;19043;51.012;5.648;2023-06-14T07:34:06;8.70;;;4.70;;
32633;SDS011;19043;51.012;5.648;2023-06-14T07:36:32;7.13;;;4.57;;
32633;SDS011;19043;51.012;5.648;2023-06-14T07:38:57;8.32;;;4.55;;
32633;SDS011;19043;51.012;5.648;2023-06-14T07:41:22;7.80;;;4.73;;
32633;SDS011;19043;51.012;5.648;2023-06-14T07:43:48;9.73;;;4.82;;
32633;SDS011;19043;51.012;5.648;2023-06-14T07:46:14;5.13;;;4.15;;
32633;SDS011;19043;51.012;5.648;2023-06-14T07:48:40;8.90;;;4.50;;
32633;SDS011;19043;51.012;5.648;2023-06-14T07:51:05;11.77;;;4.70;;
32633;SDS011;19043;51.012;5.648;2023-06-14T07:53:30;7.45;;;4.22;;
32633;SDS011;19043;51.012;5.648;2023-06-14T07:55:56;16.02;;;5.25;;
32633;SDS011;19043;51.012;5.648;2023-06-14T07:58:21;12.98;;;5.03;;
32633;SDS011;19043;51.012;5.648;2023-06-14T08:00:46;6.00;;;4.20;;
32633;SDS011;19043;51.012;5.648;2023-06-14T08:03:12;6.90;;;4.75;;
32633;SDS011;19043;51.012;5.648;2023-06-14T08:05:37;11.23;;;4.88;;
32633;SDS011;19043;51.012;5.648;2023-06-14T08:08:02;7.65;;;4.07;;
32633;SDS011;19043;51.012;5.648;2023-06-14T08:10:28;8.20;;;4.93;;
32633;SDS011;19043;51.012;5.648;2023-06-14T08:12:53;6.70;;;4.30;;
32633;SDS011;19043;51.012;5.648;2023-06-14T08:15:18;12.47;;;4.60;;
32633;SDS011;19043;51.012;5.648;2023-06-14T08:17:43;8.63;;;4.72;;
32633;SDS011;19043;51.012;5.648;2023-06-14T08:20:09;7.18;;;4.15;;
32633;SDS011;19043;51.012;5.648;2023-06-14T08:22:34;10.90;;;4.50;;
32633;SDS011;19043;51.012;5.648;2023-06-14T08:25:01;9.90;;;3.75;;
32633;SDS011;19043;51.012;5.648;2023-06-14T08:27:26;9.55;;;4.60;;
32633;SDS011;19043;51.012;5.648;2023-06-14T08:29:51;6.45;;;3.78;;
32633;SDS011;19043;51.012;5.648;2023-06-14T08:32:17;13.10;;;4.55;;
32633;SDS011;19043;51.012;5.648;2023-06-14T08:34:42;12.63;;;4.53;;
32633;SDS011;19043;51.012;5.648;2023-06-14T08:37:07;7.53;;;4.55;;
32633;SDS011;19043;51.012;5.648;2023-06-14T08:39:32;10.80;;;4.50;;
32633;SDS011;19043;51.012;5.648;2023-06-14T08:42:01;7.75;;;4.72;;
32633;SDS011;19043;51.012;5.648;2023-06-14T08:44:26;6.65;;;3.75;;
32633;SDS011;19043;51.012;5.648;2023-06-14T08:46:51;10.20;;;3.77;;
32633;SDS011;19043;51.012;5.648;2023-06-14T08:49:18;6.55;;;3.75;;
32633;SDS011;19043;51.012;5.648;2023-06-14T08:51:44;7.55;;;3.58;;
32633;SDS011;19043;51.012;5.648;2023-06-14T08:54:10;8.30;;;3.65;;
32633;SDS011;19043;51.012;5.648;2023-06-14T08:56:37;7.85;;;3.20;;
32633;SDS011;19043;51.012;5.648;2023-06-14T08:59:02;6.03;;;3.58;;
32633;SDS011;19043;51.012;5.648;2023-06-14T09:01:34;6.93;;;3.80;;
32633;SDS011;19043;51.012;5.648;2023-06-14T09:04:00;11.70;;;3.40;;
32633;SDS011;19043;51.012;5.648;2023-06-14T09:06:25;7.50;;;3.35;;
32633;SDS011;19043;51.012;5.648;2023-06-14T09:08:54;5.93;;;3.22;;
32633;SDS011;19043;51.012;5.648;2023-06-14T09:11:19;8.50;;;3.40;;
32633;SDS011;19043;51.012;5.648;2023-06-14T09:13:45;10.27;;;3.53;;
32633;SDS011;19043;51.012;5.648;2023-06-14T09:16:11;7.05;;;3.45;;
32633;SDS011;19043;51.012;5.648;2023-06-14T09:18:36;6.20;;;3.38;;
32633;SDS011;19043;51.012;5.648;2023-06-14T09:21:02;10.18;;;3.28;;
32633;SDS011;19043;51.012;5.648;2023-06-14T09:23:27;7.05;;;3.75;;
32633;SDS011;19043;51.012;5.648;2023-06-14T09:25:53;7.53;;;3.43;;
32633;SDS011;19043;51.012;5.648;2023-06-14T09:28:18;5.60;;;3.30;;
32633;SDS011;19043;51.012;5.648;2023-06-14T09:30:45;9.02;;;3.47;;
32633;SDS011;19043;51.012;5.648;2023-06-14T09:33:10;6.45;;;3.28;;
32633;SDS011;19043;51.012;5.648;2023-06-14T09:35:35;10.18;;;3.13;;
32633;SDS011;19043;51.012;5.648;2023-06-14T09:38:01;9.50;;;3.53;;
32633;SDS011;19043;51.012;5.648;2023-06-14T09:40:26;5.85;;;2.50;;
32633;SDS011;19043;51.012;5.648;2023-06-14T09:42:51;6.27;;;3.70;;
32633;SDS011;19043;51.012;5.648;2023-06-14T09:45:17;4.65;;;3.30;;
32633;SDS011;19043;51.012;5.648;2023-06-14T09:47:48;8.18;;;4.25;;
32633;SDS011;19043;51.012;5.648;2023-06-14T09:50:13;7.53;;;3.25;;
32633;SDS011;19043;51.012;5.648;2023-06-14T09:52:38;7.28;;;3.53;;
32633;SDS011;19043;51.012;5.648;2023-06-14T09:55:12;7.50;;;3.60;;
32633;SDS011;19043;51.012;5.648;2023-06-14T09:57:38;7.20;;;3.33;;
32633;SDS011;19043;51.012;5.648;2023-06-14T10:00:06;7.97;;;3.25;;
32633;SDS011;19043;51.012;5.648;2023-06-14T10:02:36;5.78;;;3.13;;
32633;SDS011;19043;51.012;5.648;2023-06-14T10:05:05;6.40;;;3.83;;
32633;SDS011;19043;51.012;5.648;2023-06-14T10:10:06;9.20;;;3.45;;
32633;SDS011;19043;51.012;5.648;2023-06-14T10:12:32;28.02;;;3.45;;
32633;SDS011;19043;51.012;5.648;2023-06-14T10:14:57;7.47;;;3.60;;
32633;SDS011;19043;51.012;5.648;2023-06-14T10:17:25;5.82;;;3.40;;
32633;SDS011;19043;51.012;5.648;2023-06-14T10:20:10;5.80;;;3.15;;
32633;SDS011;19043;51.012;5.648;2023-06-14T10:22:47;6.18;;;2.80;;
32633;SDS011;19043;51.012;5.648;2023-06-14T10:25:25;5.80;;;2.47;;
32633;SDS011;19043;51.012;5.648;2023-06-14T10:27:51;4.03;;;2.25;;
32633;SDS011;19043;51.012;5.648;2023-06-14T10:30:16;3.30;;;1.97;;
32633;SDS011;19043;51.012;5.648;2023-06-14T10:35:26;3.53;;;2.20;;
32633;SDS011;19043;51.012;5.648;2023-06-14T10:37:51;3.28;;;1.60;;
32633;SDS011;19043;51.012;5.648;2023-06-14T10:40:32;3.15;;;1.67;;
32633;SDS011;19043;51.012;5.648;2023-06-14T10:42:58;5.85;;;2.20;;
32633;SDS011;19043;51.012;5.648;2023-06-14T10:45:23;3.30;;;1.57;;
32633;SDS011;19043;51.012;5.648;2023-06-14T10:47:48;3.30;;;1.70;;
32633;SDS011;19043;51.012;5.648;2023-06-14T10:50:14;2.88;;;1.60;;
32633;SDS011;19043;51.012;5.648;2023-06-14T10:52:41;6.70;;;2.13;;
32633;SDS011;19043;51.012;5.648;2023-06-14T10:57:46;3.72;;;2.15;;
32633;SDS011;19043;51.012;5.648;2023-06-14T11:00:14;4.68;;;2.00;;
32633;SDS011;19043;51.012;5.648;2023-06-14T11:05:25;7.50;;;1.92;;
32633;SDS011;19043;51.012;5.648;2023-06-14T11:10:36;3.92;;;1.90;;
32633;SDS011;19043;51.012;5.648;2023-06-14T11:13:05;3.78;;;2.15;;
32633;SDS011;19043;51.012;5.648;2023-06-14T11:15:31;3.45;;;1.73;;
32633;SDS011;19043;51.012;5.648;2023-06-14T11:17:56;3.15;;;1.83;;
32633;SDS011;19043;51.012;5.648;2023-06-14T11:20:25;5.32;;;1.80;;
32633;SDS011;19043;51.012;5.648;2023-06-14T11:22:51;4.25;;;1.85;;
32633;SDS011;19043;51.012;5.648;2023-06-14T11:25:16;4.32;;;1.77;;
32633;SDS011;19043;51.012;5.648;2023-06-14T11:27:42;3.80;;;2.30;;
32633;SDS011;19043;51.012;5.648;2023-06-14T11:30:08;4.80;;;2.20;;
32633;SDS011;19043;51.012;5.648;2023-06-14T11:32:34;3.00;;;1.70;;
32633;SDS011;19043;51.012;5.648;2023-06-14T11:34:59;4.72;;;2.58;;
32633;SDS011;19043;51.012;5.648;2023-06-14T11:37:25;4.57;;;2.38;;
32633;SDS011;19043;51.012;5.648;2023-06-14T11:39:51;4.15;;;2.20;;
32633;SDS011;19043;51.012;5.648;2023-06-14T11:42:16;15.53;;;2.60;;
32633;SDS011;19043;51.012;5.648;2023-06-14T11:44:41;4.90;;;2.50;;
32633;SDS011;19043;51.012;5.648;2023-06-14T11:47:07;5.43;;;2.60;;
32633;SDS011;19043;51.012;5.648;2023-06-14T11:49:38;6.65;;;2.63;;
32633;SDS011;19043;51.012;5.648;2023-06-14T11:52:03;5.82;;;2.58;;
32633;SDS011;19043;51.012;5.648;2023-06-14T11:54:28;6.78;;;2.97;;
32633;SDS011;19043;51.012;5.648;2023-06-14T11:56:54;6.60;;;2.90;;
32633;SDS011;19043;51.012;5.648;2023-06-14T11:59:20;10.25;;;2.63;;
32633;SDS011;19043;51.012;5.648;2023-06-14T12:01:47;7.85;;;2.42;;
32633;SDS011;19043;51.012;5.648;2023-06-14T12:04:12;7.80;;;2.85;;
32633;SDS011;19043;51.012;5.648;2023-06-14T12:06:37;12.53;;;2.70;;
32633;SDS011;19043;51.012;5.648;2023-06-14T12:09:04;8.77;;;2.30;;
32633;SDS011;19043;51.012;5.648;2023-06-14T12:11:37;4.88;;;2.55;;
32633;SDS011;19043;51.012;5.648;2023-06-14T12:14:03;5.05;;;2.70;;
32633;SDS011;19043;51.012;5.648;2023-06-14T12:16:32;9.23;;;2.88;;
32633;SDS011;19043;51.012;5.648;2023-06-14T12:19:00;7.65;;;3.20;;
32633;SDS011;19043;51.012;5.648;2023-06-14T12:21:25;5.35;;;2.83;;
32633;SDS011;19043;51.012;5.648;2023-06-14T12:23:53;4.95;;;2.80;;
32633;SDS011;19043;51.012;5.648;2023-06-14T12:26:18;5.35;;;2.85;;
32633;SDS011;19043;51.012;5.648;2023-06-14T12:28:44;5.13;;;2.15;;
32633;SDS011;19043;51.012;5.648;2023-06-14T12:31:13;13.32;;;3.00;;
32633;SDS011;19043;51.012;5.648;2023-06-14T12:33:41;5.00;;;2.45;;
32633;SDS011;19043;51.012;5.648;2023-06-14T12:36:07;8.32;;;2.70;;
32633;SDS011;19043;51.012;5.648;2023-06-14T12:38:33;4.07;;;2.38;;
32633;SDS011;19043;51.012;5.648;2023-06-14T12:40:58;5.63;;;2.70;;
32633;SDS011;19043;51.012;5.648;2023-06-14T12:43:23;7.25;;;3.10;;
32633;SDS011;19043;51.012;5.648;2023-06-14T12:45:48;5.60;;;2.27;;
32633;SDS011;19043;51.012;5.648;2023-06-14T12:48:14;7.23;;;2.40;;
32633;SDS011;19043;51.012;5.648;2023-06-14T12:50:40;6.68;;;2.70;;
32633;SDS011;19043;51.012;5.648;2023-06-14T12:53:05;6.45;;;2.53;;
32633;SDS011;19043;51.012;5.648;2023-06-14T12:55:31;11.67;;;2.83;;
32633;SDS011;19043;51.012;5.648;2023-06-14T12:57:57;6.25;;;2.78;;
32633;SDS011;19043;51.012;5.648;2023-06-14T13:00:22;6.37;;;2.43;;
32633;SDS011;19043;51.012;5.648;2023-06-14T13:02:47;4.47;;;2.30;;
32633;SDS011;19043;51.012;5.648;2023-06-14T13:05:13;4.20;;;2.30;;
32633;SDS011;19043;51.012;5.648;2023-06-14T13:07:38;8.43;;;2.93;;
32633;SDS011;19043;51.012;5.648;2023-06-14T13:10:03;4.57;;;2.30;;
32633;SDS011;19043;51.012;5.648;2023-06-14T13:12:29;5.70;;;2.28;;
32633;SDS011;19043;51.012;5.648;2023-06-14T13:14:54;6.65;;;2.75;;
32633;SDS011;19043;51.012;5.648;2023-06-14T13:17:19;7.68;;;2.50;;
32633;SDS011;19043;51.012;5.648;2023-06-14T13:19:45;6.97;;;2.60;;
32633;SDS011;19043;51.012;5.648;2023-06-14T13:22:10;4.10;;;2.57;;
32633;SDS011;19043;51.012;5.648;2023-06-14T13:24:35;6.55;;;2.45;;
32633;SDS011;19043;51.012;5.648;2023-06-14T13:27:00;10.10;;;3.33;;
32633;SDS011;19043;51.012;5.648;2023-06-14T13:29:26;11.00;;;2.53;;
32633;SDS011;19043;51.012;5.648;2023-06-14T13:31:52;3.50;;;1.95;;
32633;SDS011;19043;51.012;5.648;2023-06-14T13:34:18;4.57;;;2.08;;
32633;SDS011;19043;51.012;5.648;2023-06-14T13:36:43;8.93;;;2.20;;
32633;SDS011;19043;51.012;5.648;2023-06-14T13:39:08;5.07;;;2.30;;
32633;SDS011;19043;51.012;5.648;2023-06-14T13:41:34;3.13;;;1.80;;
32633;SDS011;19043;51.012;5.648;2023-06-14T13:44:00;4.20;;;1.88;;
32633;SDS011;19043;51.012;5.648;2023-06-14T13:46:26;6.30;;;2.30;;
32633;SDS011;19043;51.012;5.648;2023-06-14T13:48:51;6.32;;;2.20;;
32633;SDS011;19043;51.012;5.648;2023-06-14T13:51:17;3.35;;;1.98;;
32633;SDS011;19043;51.012;5.648;2023-06-14T13:53:45;6.65;;;2.22;;
32633;SDS011;19043;51.012;5.648;2023-06-14T13:56:10;6.47;;;2.88;;
32633;SDS011;19043;51.012;5.648;2023-06-14T13:58:37;8.25;;;2.08;;
32633;SDS011;19043;51.012;5.648;2023-06-14T14:01:02;5.35;;;2.00;;
32633;SDS011;19043;51.012;5.648;2023-06-14T14:03:27;6.95;;;2.17;;
32633;SDS011;19043;51.012;5.648;2023-06-14T14:05:53;11.60;;;2.60;;
32633;SDS011;19043;51.012;5.648;2023-06-14T14:08:18;9.33;;;1.93;;
32633;SDS011;19043;51.012;5.648;2023-06-14T14:10:43;4.93;;;1.93;;
32633;SDS011;19043;51.012;5.648;2023-06-14T14:13:09;5.18;;;2.10;;
32633;SDS011;19043;51.012;5.648;2023-06-14T14:15:34;5.30;;;1.70;;
32633;SDS011;19043;51.012;5.648;2023-06-14T14:18:00;5.77;;;2.00;;
32633;SDS011;19043;51.012;5.648;2023-06-14T14:20:25;3.22;;;1.90;;
32633;SDS011;19043;51.012;5.648;2023-06-14T14:22:50;4.07;;;2.13;;
32633;SDS011;19043;51.012;5.648;2023-06-14T14:25:15;4.35;;;1.67;;
32633;SDS011;19043;51.012;5.648;2023-06-14T14:27:41;5.97;;;2.00;;
32633;SDS011;19043;51.012;5.648;2023-06-14T14:30:06;4.15;;;2.00;;
32633;SDS011;19043;51.012;5.648;2023-06-14T14:32:32;4.75;;;1.88;;
32633;SDS011;19043;51.012;5.648;2023-06-14T14:34:57;3.55;;;1.70;;
32633;SDS011;19043;51.012;5.648;2023-06-14T14:37:23;5.88;;;1.95;;
32633;SDS011;19043;51.012;5.648;2023-06-14T14:39:48;3.50;;;2.00;;
32633;SDS011;19043;51.012;5.648;2023-06-14T14:42:13;4.23;;;2.10;;
32633;SDS011;19043;51.012;5.648;2023-06-14T14:44:39;3.97;;;1.90;;
32633;SDS011;19043;51.012;5.648;2023-06-14T14:47:05;5.05;;;2.50;;
32633;SDS011;19043;51.012;5.648;2023-06-14T14:49:30;4.80;;;1.98;;